GMFO/OUD METAR and TAF weather

Enter ICAO airport designator
Station Type Date Time Source
GMFO METAR 2021/05/15 02:00 UTC NOAA

GMFO 150200Z VRB02KT CAVOK 13/06 Q1018 NOSIG


Station Type Date Time Source
GMFO Decoded METAR 2021/05/15 02:00 UTC NOAA

Oujda, Morocco (GMFO) 34-47N 001-56W 470M
May 14, 2021 - 10:00 PM EDT / 2021.05.15 0200 UTC
Wind: Variable at 2 MPH (2 KT):0
Visibility: greater than 7 mile(s):0
Temperature: 55 F (13 C)
Dew Point: 42 F (6 C)
Relative Humidity: 62%
Pressure (altimeter): 30.06 in. Hg (1018 hPa)
ob: GMFO 150200Z VRB02KT CAVOK 13/06 Q1018 NOSIG
cycle: 2

Station Type Date Time Source
GMFO TAF 2021/05/14 18:18 UTC NOAA

TAF GMFO 141700Z 1418/1524 34010KT CAVOK

Example: see airport list